Time;durP1;ratioP1;P1;durP2;ratioP2;P2;SDS_P1;SDS_P2;PMS_P1;PMS_P2;Temp;Humidity;BMP_temperature;BMP_pressure;BME280_temperature;BME280_humidity;BME280_pressure;Samples;Min_cycle;Max_cycle;Signal;HPM_P1;HPM_P2
2022/12/17 13:06:57;;;;;;;;;10.50;9.50;;;;;19.89;32.70;102266.44;5010909;28;45359;-68
2022/12/17 13:09:25;;;;;;;;;9.75;8.25;;;;;19.97;32.87;102279.81;5038209;28;45849;-68
2022/12/17 13:12:03;;;;;;;;;11.25;9.25;;;;;19.99;32.79;102282.31;5052801;28;46560;-68
2022/12/17 13:14:43;;;;;;;;;10.00;8.50;;;;;19.98;32.92;102281.50;5052706;28;45234;-68
2022/12/17 13:17:17;;;;;;;;;9.25;8.00;;;;;19.99;32.66;102279.69;5052252;28;45418;-68
2022/12/17 13:19:59;;;;;;;;;9.25;8.00;;;;;19.98;33.07;102281.50;5052846;28;45330;-68
2022/12/17 13:22:32;;;;;;;;;10.25;7.00;;;;;19.96;32.74;102289.53;5052533;28;45298;-68
2022/12/17 13:25:33;;;;;;;;;11.00;9.00;;;;;19.98;32.75;102292.06;5052075;28;46023;-68
2022/12/17 13:27:59;;;;;;;;;8.25;6.00;;;;;19.98;32.72;102291.22;4951778;28;45553;-68
2022/12/17 13:30:35;;;;;;;;;10.50;7.25;;;;;19.98;32.66;102288.59;4951498;28;45456;-68
2022/12/17 13:33:25;;;;;;;;;8.25;6.00;;;;;19.98;32.85;102284.16;4951426;28;47023;-68
2022/12/17 13:36:19;;;;;;;;;8.00;8.00;;;;;19.98;32.71;102281.50;4951496;28;45487;-68
2022/12/17 13:38:50;;;;;;;;;10.75;8.00;;;;;19.98;32.76;102285.94;4951177;28;45421;-68
2022/12/17 13:41:19;;;;;;;;;12.50;7.75;;;;;19.97;32.72;102287.75;4951564;28;45382;-68
2022/12/17 13:43:48;;;;;;;;;10.75;9.50;;;;;19.98;32.74;102278.03;4953647;28;47087;-68
2022/12/17 13:46:21;;;;;;;;;10.50;10.00;;;;;19.98;32.65;102270.94;4954245;28;46269;-68
2022/12/17 13:48:59;;;;;;;;;11.75;10.00;;;;;19.98;32.62;102270.09;4954301;28;45503;-68
2022/12/17 13:51:28;;;;;;;;;12.75;10.25;;;;;19.98;32.70;102259.53;4954253;28;45465;-68
2022/12/17 13:53:56;;;;;;;;;8.00;7.25;;;;;19.90;32.71;102249.63;4951010;28;46394;-67
2022/12/17 13:56:33;;;;;;;;;9.50;8.75;;;;;19.98;32.51;102270.09;4934673;28;45454;-68
2022/12/17 13:59:01;;;;;;;;;12.25;10.00;;;;;19.97;32.58;102277.19;4934859;28;45424;-68
2022/12/17 14:01:27;;;;;;;;;9.25;7.75;;;;;19.96;32.60;102270.22;4957700;28;45516;-68
2022/12/17 14:04:00;;;;;;;;;7.75;7.75;;;;;19.96;32.74;102272.84;5052512;28;45401;-68
2022/12/17 14:06:33;;;;;;;;;12.75;10.00;;;;;19.84;32.69;102248.34;5055144;28;45476;-68
2022/12/17 14:08:59;;;;;;;;;11.25;9.50;;;;;19.95;32.67;102263.28;5054886;28;45458;-68
2022/12/17 14:14:24;;;;;;;;;8.75;8.00;;;;;19.94;32.90;102257.16;5054847;28;45495;-68
2022/12/17 14:16:49;;;;;;;;;15.25;10.00;;;;;19.95;32.59;102247.44;5055088;28;45329;-68
2022/12/17 14:19:14;;;;;;;;;7.25;7.25;;;;;19.94;32.61;102243.94;5055164;28;45341;-68
2022/12/17 14:21:40;;;;;;;;;8.25;8.25;;;;;19.97;32.48;102263.97;5055085;28;45256;-68
2022/12/17 14:24:09;;;;;;;;;9.25;9.25;;;;;19.97;32.54;102261.31;5054619;28;46159;-68
2022/12/17 14:26:34;;;;;;;;;9.00;8.75;;;;;19.95;32.26;102269.41;5055055;28;45434;-68
2022/12/17 14:29:00;;;;;;;;;8.75;7.75;;;;;19.97;32.52;102274.53;5055014;28;45327;-68
2022/12/17 14:31:27;;;;;;;;;9.75;8.50;;;;;19.98;32.56;102272.75;5054923;28;45348;-69
2022/12/17 14:34:19;;;;;;;;;6.50;6.00;;;;;19.99;32.52;102271.75;5036798;28;46182;-69
2022/12/17 14:36:45;;;;;;;;;9.25;9.25;;;;;19.98;32.36;102265.66;5049544;28;45288;-68
2022/12/17 14:39:21;;;;;;;;;10.75;10.50;;;;;19.85;32.44;102253.47;5054794;27;45325;-68
2022/12/17 14:44:31;;;;;;;;;10.00;8.00;;;;;19.98;32.51;102278.03;5054691;28;45718;-68
2022/12/17 14:47:11;;;;;;;;;8.00;8.00;;;;;19.98;32.48;102273.59;5054736;28;45803;-68
2022/12/17 14:49:46;;;;;;;;;9.50;9.00;;;;;19.92;32.44;102266.16;5054738;28;45583;-68
2022/12/17 14:52:13;;;;;;;;;12.00;9.50;;;;;19.99;32.63;102280.53;5054254;28;45369;-68
2022/12/17 14:54:45;;;;;;;;;9.75;9.75;;;;;19.91;32.44;102262.69;5044433;28;46114;-68
2022/12/17 14:57:20;;;;;;;;;11.50;8.75;;;;;19.99;32.59;102284.97;5034458;28;45260;-68
2022/12/17 14:59:45;;;;;;;;;11.50;9.00;;;;;20.00;32.25;102297.22;5034507;28;45326;-68
2022/12/17 15:02:25;;;;;;;;;9.00;9.00;;;;;20.01;32.40;102298.91;5038835;27;45297;-68
2022/12/17 15:04:54;;;;;;;;;9.25;9.25;;;;;19.87;32.93;102269.22;5054319;28;45406;-68
2022/12/17 15:07:26;;;;;;;;;10.00;10.00;;;;;19.99;32.56;102272.59;5054127;28;45311;-68
2022/12/17 15:09:54;;;;;;;;;8.25;8.25;;;;;20.00;32.63;102284.84;5054525;28;45269;-69
2022/12/17 15:12:23;;;;;;;;;8.75;8.75;;;;;20.00;32.60;102273.44;5054362;28;45298;-68
2022/12/17 15:14:49;;;;;;;;;10.25;10.00;;;;;19.99;32.40;102275.25;5054080;28;47181;-68
2022/12/17 15:17:14;;;;;;;;;7.50;7.50;;;;;19.99;32.43;102275.25;5054383;28;45487;-68
2022/12/17 15:19:40;;;;;;;;;7.75;7.75;;;;;19.99;32.58;102284.97;5054402;28;45393;-68
2022/12/17 15:22:13;;;;;;;;;9.75;9.00;;;;;19.88;32.72;102265.59;5054094;28;45291;-68
2022/12/17 15:24:38;;;;;;;;;13.50;11.00;;;;;19.98;32.43;102280.66;5054239;28;46132;-68
2022/12/17 15:27:04;;;;;;;;;10.00;8.25;;;;;19.98;32.54;102289.44;5054147;28;45387;-68
2022/12/17 15:29:30;;;;;;;;;10.00;10.00;;;;;19.97;32.48;102277.19;5054259;28;45333;-68
2022/12/17 15:31:56;;;;;;;;;12.50;9.75;;;;;19.92;32.53;102274.94;5054218;27;45320;-68
2022/12/17 15:34:21;;;;;;;;;8.00;7.75;;;;;19.96;32.49;102284.25;5053628;28;46113;-68
2022/12/17 15:36:46;;;;;;;;;12.50;9.75;;;;;19.97;32.69;102285.09;5054094;28;45222;-68
2022/12/17 15:39:12;;;;;;;;;10.25;9.00;;;;;19.96;32.60;102280.78;5054305;28;45257;-68
2022/12/17 15:44:21;;;;;;;;;10.75;7.00;;;;;19.96;32.55;102286.91;5053953;28;45355;-68
2022/12/17 15:46:46;;;;;;;;;11.00;9.50;;;;;19.96;32.66;102291.34;5053803;28;45515;-68
2022/12/17 15:49:12;;;;;;;;;12.25;11.00;;;;;19.95;32.48;102297.63;5053765;28;45305;-68
2022/12/17 15:51:37;;;;;;;;;11.00;10.00;;;;;19.93;32.55;102307.47;5054104;28;45360;-68
2022/12/17 15:54:02;;;;;;;;;7.25;7.25;;;;;19.93;32.40;102304.84;5049672;28;46910;-68
2022/12/17 15:56:28;;;;;;;;;9.50;8.00;;;;;19.90;32.31;102307.72;5033851;28;45374;-68
2022/12/17 15:58:57;;;;;;;;;10.00;7.25;;;;;19.94;32.46;102309.97;5034005;28;45244;-68
2022/12/17 16:01:23;;;;;;;;;11.25;7.75;;;;;19.94;32.58;102315.25;5033471;27;45470;-68
2022/12/17 16:03:48;;;;;;;;;8.00;7.00;;;;;19.94;32.61;102302.06;5051400;28;45935;-68
2022/12/17 16:06:13;;;;;;;;;10.00;8.75;;;;;19.93;32.75;102284.53;5053488;28;45413;-68
2022/12/17 16:08:39;;;;;;;;;8.50;8.00;;;;;19.93;32.39;102292.44;5053966;28;45325;-68
2022/12/17 16:11:08;;;;;;;;;10.50;10.00;;;;;19.93;32.53;102286.34;5053685;28;45382;-68
2022/12/17 16:13:35;;;;;;;;;9.25;9.00;;;;;19.92;32.41;102287.31;5053310;28;46360;-68
2022/12/17 16:16:01;;;;;;;;;9.50;9.50;;;;;19.93;32.46;102275.78;5053505;28;45295;-68
2022/12/17 16:18:27;;;;;;;;;12.25;9.50;;;;;19.92;32.43;102282.88;5053393;28;45397;-68
2022/12/17 16:20:52;;;;;;;;;12.00;9.50;;;;;19.92;32.59;102268.81;5053681;28;45326;-68
2022/12/17 16:23:19;;;;;;;;;8.00;8.00;;;;;19.91;32.57;102269.78;5053450;28;45373;-68
2022/12/17 16:25:44;;;;;;;;;7.75;5.00;;;;;19.90;32.37;102276.88;5052202;28;45978;-68
2022/12/17 16:28:09;;;;;;;;;11.75;9.25;;;;;19.91;32.33;102296.19;5053547;28;45316;-68
2022/12/17 16:30:35;;;;;;;;;12.00;9.25;;;;;19.89;32.38;102293.69;5053738;28;45391;-68
2022/12/17 16:33:00;;;;;;;;;7.75;6.25;;;;;19.88;32.55;102273.50;5052944;28;46923;-68
2022/12/17 16:35:27;;;;;;;;;6.50;6.50;;;;;19.89;32.65;102288.41;5053499;28;45423;-68
2022/12/17 16:37:53;;;;;;;;;11.50;10.00;;;;;19.83;32.28;102265.97;5053510;28;45325;-68
2022/12/17 16:40:19;;;;;;;;;8.00;7.75;;;;;19.86;32.17;102280.72;5053418;28;45416;-68
2022/12/17 16:42:44;;;;;;;;;8.75;8.00;;;;;19.89;32.69;102293.69;5053096;28;46311;-69
2022/12/17 16:45:10;;;;;;;;;10.50;9.75;;;;;19.90;32.46;102294.53;5053252;28;45291;-68
2022/12/17 16:47:35;;;;;;;;;11.75;10.75;;;;;19.90;32.15;102303.28;5052972;28;45293;-68
2022/12/17 16:50:00;;;;;;;;;11.25;8.50;;;;;19.90;32.60;102300.66;5053397;28;45286;-68
2022/12/17 16:52:26;;;;;;;;;13.00;11.00;;;;;19.90;32.30;102308.56;5035191;28;46868;-68
2022/12/17 16:54:51;;;;;;;;;15.00;11.00;;;;;19.90;32.38;102305.94;5024289;28;45311;-68
2022/12/17 16:57:16;;;;;;;;;9.00;8.75;;;;;19.91;32.20;102306.75;5033204;28;45618;-68
2022/12/17 16:59:42;;;;;;;;;8.25;7.75;;;;;19.90;32.23;102290.09;5033271;28;45373;-68
2022/12/17 17:02:14;;;;;;;;;13.25;11.25;;;;;19.90;32.31;102286.59;5036425;27;46318;-68
2022/12/17 17:04:39;;;;;;;;;11.00;9.50;;;;;19.75;32.33;102259.69;5053023;28;45399;-68
2022/12/17 17:07:05;;;;;;;;;11.50;10.00;;;;;19.90;32.58;102268.97;5052966;28;45504;-68
2022/12/17 17:09:31;;;;;;;;;13.25;11.50;;;;;19.90;32.34;102265.47;5053110;28;45206;-68
2022/12/17 17:11:57;;;;;;;;;10.25;9.50;;;;;19.78;32.46;102259.41;5052775;28;47408;-68
2022/12/17 17:14:24;;;;;;;;;12.00;10.25;;;;;19.90;32.41;102287.44;5052671;28;45379;-69
2022/12/17 17:16:50;;;;;;;;;12.25;10.75;;;;;19.90;32.33;102271.59;5051724;28;45423;-68
2022/12/17 17:19:15;;;;;;;;;13.00;9.00;;;;;19.90;32.40;102268.13;5052861;28;45402;-68
2022/12/17 17:21:48;;;;;;;;;9.00;9.00;;;;;19.88;32.25;102284.06;5052634;28;46307;-68
2022/12/17 17:24:15;;;;;;;;;11.00;8.75;;;;;19.89;32.27;102285.75;5052608;28;45458;-68
2022/12/17 17:26:41;;;;;;;;;12.00;11.00;;;;;19.88;32.32;102275.34;5052646;28;45346;-68
2022/12/17 17:29:07;;;;;;;;;9.75;8.00;;;;;19.89;32.49;102283.13;5052738;28;45389;-68
2022/12/17 17:31:34;;;;;;;;;12.50;10.00;;;;;19.88;32.55;102283.25;5052258;28;47046;-68
2022/12/17 17:33:59;;;;;;;;;9.00;9.00;;;;;19.88;32.41;102292.00;5052606;28;45502;-68
2022/12/17 17:36:27;;;;;;;;;12.50;12.50;;;;;19.77;32.53;102273.59;5052672;28;45360;-68
2022/12/17 17:38:54;;;;;;;;;13.00;9.00;;;;;19.86;32.27;102291.28;5052525;28;45299;-68
2022/12/17 17:41:22;;;;;;;;;10.50;10.00;;;;;19.87;32.45;102298.25;5052378;28;47780;-69
2022/12/17 17:43:57;;;;;;;;;12.75;10.25;;;;;19.81;32.62;102289.06;5052326;28;45285;-68
2022/12/17 17:46:24;;;;;;;;;9.00;9.00;;;;;19.87;32.08;102302.69;5052137;28;45525;-68
2022/12/17 17:48:50;;;;;;;;;12.50;10.00;;;;;19.86;32.29;102307.16;5052514;28;45319;-68
2022/12/17 17:51:21;;;;;;;;;11.50;10.00;;;;;19.85;32.41;102306.31;5052269;28;45308;-68
2022/12/17 17:53:49;;;;;;;;;8.25;8.25;;;;;19.84;32.27;102309.94;5050311;28;45278;-68
2022/12/17 17:56:20;;;;;;;;;11.25;9.75;;;;;19.84;32.42;102307.28;5014228;28;45304;-68
2022/12/17 17:58:49;;;;;;;;;12.75;10.00;;;;;19.84;32.25;102320.50;5032257;28;45422;-68
2022/12/17 18:01:17;;;;;;;;;10.25;9.50;;;;;19.85;32.41;102324.78;5031463;28;46379;-68
2022/12/17 18:03:43;;;;;;;;;10.75;9.75;;;;;19.82;32.22;102327.72;5049261;28;45310;-68
2022/12/17 18:06:12;;;;;;;;;12.25;10.75;;;;;19.84;32.30;102322.28;5052252;28;45306;-68
2022/12/17 18:08:38;;;;;;;;;15.75;11.50;;;;;19.84;32.31;102331.06;5052199;28;45292;-68
2022/12/17 18:11:06;;;;;;;;;12.75;10.00;;;;;19.84;32.41;102346.06;5051927;28;45292;-68
2022/12/17 18:16:16;;;;;;;;;10.50;9.00;;;;;19.83;32.28;102337.28;5052106;28;45373;-68
2022/12/17 18:18:42;;;;;;;;;9.25;9.25;;;;;19.68;32.20;102318.28;5051981;28;45401;-69
2022/12/17 18:21:13;;;;;;;;;11.00;9.75;;;;;19.82;32.29;102345.34;5051801;28;46134;-68
2022/12/17 18:23:39;;;;;;;;;9.75;9.75;;;;;19.82;32.41;102346.19;5051863;28;45539;-68
2022/12/17 18:26:09;;;;;;;;;12.25;9.00;;;;;19.83;32.54;102339.09;5051797;28;45352;-68
2022/12/17 18:28:38;;;;;;;;;9.50;9.00;;;;;19.82;32.23;102334.78;5052654;28;45345;-68
2022/12/17 18:31:09;;;;;;;;;10.25;10.00;;;;;19.82;32.21;102329.50;5054783;28;47112;-68
2022/12/17 18:33:35;;;;;;;;;11.75;11.50;;;;;19.80;32.28;102324.34;5054765;28;45432;-68
2022/12/17 18:36:01;;;;;;;;;12.25;10.75;;;;;19.82;32.29;102324.22;5054991;28;45335;-68
2022/12/17 18:38:26;;;;;;;;;12.50;11.00;;;;;19.81;32.36;102322.53;5054909;28;45408;-68
2022/12/17 18:40:51;;;;;;;;;13.25;10.75;;;;;19.82;32.26;102327.72;5054795;28;46222;-68
2022/12/17 18:43:22;;;;;;;;;14.00;10.75;;;;;19.83;32.22;102325.88;5054588;28;45423;-68
2022/12/17 18:45:49;;;;;;;;;12.25;11.25;;;;;19.83;32.21;102325.88;5054859;28;45362;-68
2022/12/17 18:48:14;;;;;;;;;10.00;10.00;;;;;19.83;32.06;102320.59;5054840;28;45318;-68
2022/12/17 18:50:39;;;;;;;;;13.50;10.25;;;;;19.84;32.22;102327.56;5054539;28;45349;-68
2022/12/17 18:53:05;;;;;;;;;11.75;9.00;;;;;19.84;32.20;102335.50;5054582;28;45326;-68
2022/12/17 18:55:30;;;;;;;;;15.00;11.50;;;;;19.83;32.00;102345.22;5038590;28;45276;-68
2022/12/17 18:57:55;;;;;;;;;14.00;11.75;;;;;19.84;32.36;102338.13;5034353;28;45260;-68
2022/12/17 19:00:21;;;;;;;;;14.00;12.75;;;;;19.76;32.13;102306.25;5034345;28;45240;-68
2022/12/17 19:02:46;;;;;;;;;13.00;11.00;;;;;19.84;32.25;102307.28;5043764;28;45553;-68
2022/12/17 19:05:11;;;;;;;;;12.00;10.25;;;;;19.83;32.29;102316.16;5054814;28;45367;-68
2022/12/17 19:07:37;;;;;;;;;12.00;11.00;;;;;19.84;31.94;102312.56;5054672;28;45258;-68
2022/12/17 19:10:03;;;;;;;;;16.75;11.00;;;;;19.84;32.13;102317.00;5054464;28;45919;-68
2022/12/17 19:12:28;;;;;;;;;12.00;10.00;;;;;19.82;32.34;102326.88;5054220;28;45609;-68
2022/12/17 19:14:53;;;;;;;;;10.50;10.00;;;;;19.83;32.30;102333.81;5054481;28;45237;-68
2022/12/17 19:17:19;;;;;;;;;13.00;12.00;;;;;19.84;32.25;102333.69;5054583;28;45226;-68
2022/12/17 19:19:44;;;;;;;;;11.25;10.25;;;;;19.78;32.44;102326.28;5054275;28;46107;-68
2022/12/17 19:22:09;;;;;;;;;11.00;10.50;;;;;19.83;32.26;102325.88;5054392;28;45355;-68
2022/12/17 19:24:34;;;;;;;;;12.75;10.00;;;;;19.68;32.44;102305.09;5054394;28;45362;-68
2022/12/17 19:27:00;;;;;;;;;11.75;9.50;;;;;19.82;32.34;102337.44;5053860;28;45396;-68
2022/12/17 19:29:25;;;;;;;;;13.25;12.25;;;;;19.81;32.33;102343.66;5054087;28;45228;-68
2022/12/17 19:31:51;;;;;;;;;13.00;9.50;;;;;19.82;32.31;102342.72;5054069;28;45289;-68
2022/12/17 19:34:18;;;;;;;;;12.25;12.00;;;;;19.81;32.15;102346.31;5054369;28;45650;-68
2022/12/17 19:36:44;;;;;;;;;11.75;11.75;;;;;19.80;32.41;102332.25;5054210;28;45593;-68
2022/12/17 19:39:17;;;;;;;;;10.25;9.50;;;;;19.81;32.10;102333.09;5036020;28;45387;-68
2022/12/17 19:41:43;;;;;;;;;12.00;10.75;;;;;19.81;32.30;102330.47;5053043;28;45318;-68
2022/12/17 19:44:14;;;;;;;;;11.50;10.75;;;;;19.81;32.12;102330.47;5054074;28;45251;-68
2022/12/17 19:46:40;;;;;;;;;12.75;9.25;;;;;19.79;32.31;102321.84;5054129;28;45435;-68
2022/12/17 19:49:07;;;;;;;;;13.50;10.25;;;;;19.71;32.33;102309.28;5053858;28;45378;-68
2022/12/17 19:51:32;;;;;;;;;14.50;12.00;;;;;19.67;32.19;102300.75;5053870;28;45397;-68
2022/12/17 19:53:58;;;;;;;;;12.50;11.75;;;;;19.79;32.24;102314.75;5050482;28;45490;-68
2022/12/17 19:56:29;;;;;;;;;12.25;12.00;;;;;19.80;32.15;102321.69;5033605;28;45402;-68
2022/12/17 19:59:00;;;;;;;;;16.50;12.75;;;;;19.75;32.38;102329.16;5033782;28;46148;-68
2022/12/17 20:01:35;;;;;;;;;11.75;11.25;;;;;19.79;32.28;102338.53;5033304;28;45389;-68
2022/12/17 20:04:00;;;;;;;;;12.00;11.00;;;;;19.79;32.27;102329.75;5053643;28;45390;-68
2022/12/17 20:06:29;;;;;;;;;11.50;9.00;;;;;19.78;32.31;102321.00;5053951;28;45448;-68
2022/12/17 20:08:56;;;;;;;;;11.75;11.00;;;;;19.77;32.15;102321.13;5053760;28;46409;-68
2022/12/17 20:11:33;;;;;;;;;13.25;11.25;;;;;19.77;31.96;102339.63;5053405;28;45369;-68
2022/12/17 20:14:22;;;;;;;;;14.00;13.00;;;;;19.77;32.20;102331.69;5053741;28;45384;-68
2022/12/17 20:16:58;;;;;;;;;11.00;10.00;;;;;19.77;32.09;102323.78;5053766;28;45241;-68
2022/12/17 20:19:26;;;;;;;;;11.50;11.50;;;;;19.77;32.45;102340.47;5053658;28;45334;-68
2022/12/17 20:21:52;;;;;;;;;11.75;10.75;;;;;19.77;32.17;102321.13;5053582;28;45369;-68
2022/12/17 20:24:18;;;;;;;;;15.75;12.50;;;;;19.76;32.29;102314.16;5053258;28;45455;-68
2022/12/17 20:26:45;;;;;;;;;10.75;9.50;;;;;19.75;32.30;102313.31;5053617;28;45383;-68
2022/12/17 20:29:10;;;;;;;;;13.50;12.00;;;;;19.75;32.05;102304.59;5053525;28;46273;-68
2022/12/17 20:31:36;;;;;;;;;12.50;11.25;;;;;19.74;32.26;102306.38;5053493;28;45398;-68
2022/12/17 20:34:07;;;;;;;;;12.25;8.00;;;;;19.75;32.11;102299.31;5053573;28;45368;-68
2022/12/17 20:36:33;;;;;;;;;8.00;6.75;;;;;19.75;32.14;102297.47;5053735;28;45416;-68
2022/12/17 20:38:58;;;;;;;;;11.75;11.75;;;;;19.75;32.08;102312.50;5053104;28;47304;-68
2022/12/17 20:41:27;;;;;;;;;14.75;11.00;;;;;19.76;32.08;102306.25;5053345;28;45361;-68
2022/12/17 20:43:52;;;;;;;;;13.00;12.00;;;;;19.76;32.23;102300.97;5053563;28;45765;-68
2022/12/17 20:46:19;;;;;;;;;14.75;12.25;;;;;19.77;32.25;102297.38;5053367;28;45381;-68
2022/12/17 20:48:46;;;;;;;;;12.50;11.75;;;;;19.67;31.88;102278.81;5035267;28;48272;-68
2022/12/17 20:51:15;;;;;;;;;14.75;10.25;;;;;19.68;32.10;102277.84;5052676;28;45464;-68
2022/12/17 20:53:41;;;;;;;;;9.25;9.25;;;;;19.77;32.21;102292.94;5051253;28;45634;-68
2022/12/17 20:56:09;;;;;;;;;13.25;12.50;;;;;19.76;32.01;102283.31;5033141;28;45354;-68
2022/12/17 20:58:36;;;;;;;;;12.00;10.50;;;;;19.76;32.13;102275.41;5033129;28;46124;-68
2022/12/17 21:01:09;;;;;;;;;12.50;10.50;;;;;19.76;32.20;102269.28;5032914;28;45467;-68
2022/12/17 21:03:35;;;;;;;;;10.50;10.50;;;;;19.67;32.13;102260.34;5049169;28;45488;-68
2022/12/17 21:06:09;;;;;;;;;11.75;10.50;;;;;19.76;32.02;102279.84;5053106;28;45274;-68
2022/12/17 21:08:35;;;;;;;;;15.25;11.75;;;;;19.73;32.10;102286.22;5052815;28;45427;-68
2022/12/17 21:11:01;;;;;;;;;12.50;11.25;;;;;19.75;32.09;102292.19;5052755;28;45510;-68
2022/12/17 21:13:29;;;;;;;;;13.25;12.75;;;;;19.74;32.30;102279.97;5052903;28;45347;-68
2022/12/17 21:16:03;;;;;;;;;14.75;11.25;;;;;19.75;32.15;102283.47;5052986;28;45287;-68
2022/12/17 21:18:30;;;;;;;;;13.75;11.00;;;;;19.73;32.16;102278.28;5052641;28;47462;-68
2022/12/17 21:20:58;;;;;;;;;13.75;11.75;;;;;19.75;32.28;102296.66;5052919;28;45613;-68
2022/12/17 21:23:24;;;;;;;;;11.25;11.00;;;;;19.68;31.58;102299.81;5052322;28;45315;-68
2022/12/17 21:26:05;;;;;;;;;16.00;12.25;;;;;19.75;31.90;102320.44;5052937;28;45305;-68
2022/12/17 21:28:32;;;;;;;;;13.50;13.50;;;;;19.73;31.95;102315.25;5052517;28;46291;-68
2022/12/17 21:30:57;;;;;;;;;11.00;10.75;;;;;19.72;32.06;102310.97;5052569;28;45393;-68
2022/12/17 21:33:23;;;;;;;;;14.50;12.00;;;;;19.70;32.15;102300.50;5052412;28;45396;-68
2022/12/17 21:35:48;;;;;;;;;10.75;10.00;;;;;19.72;32.26;102298.56;5052784;28;45381;-68
2022/12/17 21:38:15;;;;;;;;;12.50;10.50;;;;;19.69;32.11;102292.72;5052270;28;46143;-69
2022/12/17 21:40:41;;;;;;;;;11.50;9.50;;;;;19.72;31.91;102292.47;5052564;28;45400;-68
2022/12/17 21:43:06;;;;;;;;;12.25;10.50;;;;;19.66;31.97;102280.63;5052464;28;45501;-68
2022/12/17 21:45:40;;;;;;;;;4.75;4.00;;;;;19.70;32.07;102287.31;5052671;28;45347;-68
2022/12/17 21:48:09;;;;;;;;;11.50;10.25;;;;;19.71;32.11;102288.16;5052262;28;47176;-68
2022/12/17 21:50:47;;;;;;;;;13.00;11.25;;;;;19.70;32.02;102289.94;5051540;28;45409;-68
2022/12/17 21:53:12;;;;;;;;;11.25;10.25;;;;;19.71;32.04;102283.72;5052021;28;45241;-68
2022/12/17 21:55:38;;;;;;;;;11.75;9.00;;;;;19.70;31.91;102274.09;5035185;28;45404;-68
2022/12/17 21:58:03;;;;;;;;;12.50;11.25;;;;;19.70;31.96;102278.53;5032022;28;46945;-68
2022/12/17 22:00:29;;;;;;;;;11.50;11.25;;;;;19.70;32.04;102284.66;5032220;28;45310;-68
2022/12/17 22:02:54;;;;;;;;;13.25;10.00;;;;;19.69;32.09;102296.22;5042894;28;45495;-68
2022/12/17 22:05:20;;;;;;;;;10.50;10.50;;;;;19.70;32.11;102291.75;5055410;28;45531;-69
2022/12/17 22:07:45;;;;;;;;;15.00;14.00;;;;;19.69;32.05;102298.84;5054933;28;45714;-68
2022/12/17 22:10:12;;;;;;;;;11.75;10.75;;;;;19.65;32.29;102293.97;5055192;28;45319;-68
2022/12/17 22:15:22;;;;;;;;;12.50;7.75;;;;;19.67;32.04;102297.31;5055304;28;45281;-68
2022/12/17 22:17:47;;;;;;;;;11.50;9.75;;;;;19.68;32.16;102304.25;5055029;28;45367;-68
2022/12/17 22:20:15;;;;;;;;;11.50;10.25;;;;;19.68;32.13;102293.69;5055215;28;45457;-68
2022/12/17 22:22:40;;;;;;;;;12.00;10.75;;;;;19.68;32.04;102291.88;5055235;28;45399;-68
2022/12/17 22:25:06;;;;;;;;;13.50;10.50;;;;;19.69;32.03;102296.22;5055133;28;45519;-68
2022/12/17 22:27:32;;;;;;;;;14.25;10.75;;;;;19.68;32.04;102286.59;5055035;28;45383;-68
2022/12/17 22:32:59;;;;;;;;;10.75;10.75;;;;;19.67;32.03;102284.91;5055161;28;45355;-68
2022/12/17 22:35:25;;;;;;;;;13.75;10.00;;;;;19.65;31.97;102281.56;5036499;28;45440;-68
2022/12/17 22:37:51;;;;;;;;;10.75;10.25;;;;;19.62;32.11;102279.22;5054708;28;46131;-68
2022/12/17 22:40:19;;;;;;;;;10.75;10.50;;;;;19.68;31.86;102272.56;5054716;28;45391;-68
2022/12/17 22:45:28;;;;;;;;;17.75;14.25;;;;;19.64;31.70;102250.88;5054870;28;45454;-68
2022/12/17 22:47:53;;;;;;;;;14.75;12.50;;;;;19.66;31.98;102261.28;5054719;28;45306;-68
2022/12/17 22:50:19;;;;;;;;;12.25;12.00;;;;;19.70;31.63;102267.97;5054399;28;45238;-68
2022/12/17 22:52:44;;;;;;;;;13.00;10.00;;;;;19.71;31.85;102274.94;5054689;28;45545;-68
2022/12/17 22:55:09;;;;;;;;;9.50;9.25;;;;;19.70;31.92;102274.09;5041641;28;45349;-68
2022/12/17 22:57:35;;;;;;;;;11.75;11.00;;;;;19.71;31.84;102277.59;5034494;28;45389;-68
2022/12/17 23:00:00;;;;;;;;;8.75;8.75;;;;;19.70;31.79;102271.47;5034656;28;45357;-68
2022/12/17 23:02:26;;;;;;;;;10.25;10.25;;;;;19.71;31.84;102280.22;5041011;28;45355;-68
2022/12/17 23:04:51;;;;;;;;;9.25;9.25;;;;;19.56;32.25;102253.31;5054210;28;45431;-68
2022/12/17 23:07:16;;;;;;;;;13.25;10.00;;;;;19.71;31.86;102267.03;5036431;28;46850;-68
2022/12/17 23:09:42;;;;;;;;;12.25;11.25;;;;;19.70;32.00;102273.25;5054573;28;45221;-68
2022/12/17 23:14:51;;;;;;;;;9.75;8.50;;;;;19.68;31.88;102256.72;5053666;28;45376;-68
2022/12/17 23:17:16;;;;;;;;;10.50;10.00;;;;;19.68;31.59;102265.47;5054232;28;45319;-68
2022/12/17 23:19:42;;;;;;;;;14.75;12.50;;;;;19.68;31.72;102259.34;5054049;28;45594;-68
2022/12/17 23:22:07;;;;;;;;;11.75;10.25;;;;;19.68;31.66;102254.91;5054459;28;45450;-68
2022/12/17 23:24:32;;;;;;;;;10.75;10.50;;;;;19.66;32.06;102256.00;5054533;28;45372;-68
2022/12/17 23:26:58;;;;;;;;;10.25;10.25;;;;;19.66;31.95;102256.84;5054222;28;46175;-68
2022/12/17 23:29:23;;;;;;;;;13.75;11.25;;;;;19.67;31.84;102249.78;5054297;28;45329;-68
2022/12/17 23:31:48;;;;;;;;;10.25;9.00;;;;;19.67;31.78;102245.31;5036276;28;45448;-68
2022/12/17 23:34:14;;;;;;;;;11.00;10.00;;;;;19.67;31.96;102247.13;5053905;28;45341;-68
2022/12/17 23:36:39;;;;;;;;;11.75;9.00;;;;;19.66;31.98;102246.28;5054328;28;45636;-68
2022/12/17 23:39:05;;;;;;;;;13.75;10.25;;;;;19.57;31.70;102223.31;5054136;28;45311;-68
2022/12/17 23:41:31;;;;;;;;;8.50;8.25;;;;;19.67;31.94;102237.38;5054247;28;45375;-68
2022/12/17 23:43:58;;;;;;;;;9.25;9.25;;;;;19.67;31.83;102234.75;5054117;28;45444;-68
2022/12/17 23:46:25;;;;;;;;;11.75;8.75;;;;;19.67;31.72;102233.94;5054069;28;45739;-68
2022/12/17 23:48:51;;;;;;;;;9.00;9.00;;;;;19.66;31.89;102238.38;5053535;28;45353;-68
2022/12/17 23:51:19;;;;;;;;;13.00;9.75;;;;;19.66;31.91;102238.38;5053867;28;45236;-68
2022/12/17 23:53:45;;;;;;;;;13.00;9.00;;;;;19.60;32.05;102233.59;5052358;28;45334;-68
2022/12/17 23:56:17;;;;;;;;;12.75;11.25;;;;;19.65;31.60;102244.59;5033682;28;46875;-68
2022/12/17 23:58:44;;;;;;;;;11.25;10.00;;;;;19.65;31.71;102247.25;5033833;28;45529;-68
